Time;durP1;ratioP1;P1;durP2;ratioP2;P2;SDS_P1;SDS_P2;PMS_P1;PMS_P2;Temp;Humidity;BMP_temperature;BMP_pressure;BME280_temperature;BME280_humidity;BME280_pressure;Samples;Min_cycle;Max_cycle;Signal;HPM_P1;HPM_P2
2024/01/10 00:00:21;;;;;;;64.67;59.37;;;0.70;99.90;;;;;;5051782;28;20037;-71
2024/01/10 00:02:47;;;;;;;76.10;70.50;;;0.80;99.90;;;;;;5051084;28;20452;-71
2024/01/10 00:05:13;;;;;;;70.13;64.37;;;0.70;99.90;;;;;;5052558;28;20044;-71
2024/01/10 00:07:39;;;;;;;83.30;76.57;;;0.80;99.90;;;;;;5052140;28;20043;-71
2024/01/10 00:10:06;;;;;;;63.57;58.37;;;0.70;99.90;;;;;;5052078;28;20049;-71
2024/01/10 00:12:36;;;;;;;61.67;56.17;;;0.70;99.90;;;;;;5051158;28;20043;-71
2024/01/10 00:15:05;;;;;;;83.13;76.60;;;0.70;99.90;;;;;;5051908;28;20041;-71
2024/01/10 00:17:32;;;;;;;108.77;101.97;;;0.70;99.90;;;;;;5050939;28;20036;-71
2024/01/10 00:19:58;;;;;;;74.27;68.27;;;0.60;99.90;;;;;;5049633;28;20044;-71
2024/01/10 00:22:24;;;;;;;58.67;53.73;;;0.70;99.90;;;;;;5050860;28;20036;-71
2024/01/10 00:24:50;;;;;;;84.27;78.43;;;0.70;99.90;;;;;;5052409;28;20044;-71
2024/01/10 00:27:16;;;;;;;79.17;72.70;;;0.60;99.90;;;;;;5052010;28;20498;-71
2024/01/10 00:29:42;;;;;;;98.37;91.03;;;0.60;99.90;;;;;;5052158;28;20048;-71
2024/01/10 00:32:08;;;;;;;84.40;77.80;;;0.70;99.90;;;;;;5049804;28;20112;-71
2024/01/10 00:34:34;;;;;;;64.40;58.67;;;0.70;99.90;;;;;;5051799;28;20029;-71
2024/01/10 00:37:01;;;;;;;87.77;80.93;;;0.60;99.90;;;;;;5051679;28;20032;-71
2024/01/10 00:39:27;;;;;;;69.53;64.23;;;0.70;99.90;;;;;;5052072;28;20747;-71
2024/01/10 00:41:53;;;;;;;52.33;47.47;;;0.60;99.90;;;;;;5050851;28;20032;-71
2024/01/10 00:44:19;;;;;;;68.87;63.17;;;0.60;99.90;;;;;;5050121;28;20049;-71
2024/01/10 00:46:45;;;;;;;103.63;95.73;;;0.50;99.90;;;;;;5050825;28;20036;-72
2024/01/10 00:49:11;;;;;;;83.77;76.90;;;0.60;99.90;;;;;;5051368;28;20049;-71
2024/01/10 00:51:37;;;;;;;124.57;115.73;;;0.70;99.90;;;;;;5051375;28;20040;-71
2024/01/10 00:54:03;;;;;;;76.63;70.17;;;0.70;99.90;;;;;;5050752;28;20059;-71
2024/01/10 00:56:29;;;;;;;58.70;53.73;;;0.60;99.90;;;;;;5051513;28;20040;-71
2024/01/10 00:58:57;;;;;;;70.40;64.53;;;0.60;99.90;;;;;;5052129;28;20032;-71
2024/01/10 01:01:24;;;;;;;64.57;59.07;;;0.60;99.90;;;;;;5047826;28;20029;-71
2024/01/10 01:03:50;;;;;;;67.53;61.90;;;0.50;99.90;;;;;;5051128;28;20045;-71
2024/01/10 01:06:16;;;;;;;56.93;51.93;;;0.50;99.90;;;;;;5048330;28;20364;-71
2024/01/10 01:08:42;;;;;;;106.83;100.00;;;0.50;99.90;;;;;;5051441;28;20052;-71
2024/01/10 01:11:08;;;;;;;62.00;56.77;;;0.50;99.90;;;;;;5048362;28;20487;-71
2024/01/10 01:13:34;;;;;;;81.30;75.20;;;0.40;99.90;;;;;;5051501;28;20033;-71
2024/01/10 01:16:01;;;;;;;53.00;48.03;;;0.40;99.90;;;;;;5043562;28;20033;-71
2024/01/10 01:18:27;;;;;;;71.57;65.37;;;0.40;99.90;;;;;;5040578;28;20029;-71
2024/01/10 01:20:53;;;;;;;74.70;68.57;;;0.40;99.90;;;;;;5047222;28;20025;-71
2024/01/10 01:23:19;;;;;;;55.73;50.47;;;0.40;99.90;;;;;;5051632;28;20499;-72
2024/01/10 01:25:45;;;;;;;58.97;53.77;;;0.40;99.90;;;;;;5027898;28;20029;-71
2024/01/10 01:28:11;;;;;;;65.77;60.27;;;0.40;99.90;;;;;;5031626;28;20029;-71
2024/01/10 01:30:39;;;;;;;107.30;99.40;;;0.40;99.90;;;;;;5038283;28;20037;-71
2024/01/10 01:33:05;;;;;;;102.93;95.33;;;0.40;99.90;;;;;;5050482;28;20056;-72
2024/01/10 01:35:31;;;;;;;85.97;79.30;;;0.50;99.90;;;;;;5051108;28;20472;-71
2024/01/10 01:37:57;;;;;;;57.97;53.67;;;0.50;99.90;;;;;;5051506;28;20037;-71
2024/01/10 01:40:23;;;;;;;89.07;83.47;;;0.40;99.90;;;;;;5048430;28;20041;-71
2024/01/10 01:42:49;;;;;;;85.77;79.87;;;0.30;99.90;;;;;;5043367;28;20522;-71
2024/01/10 01:45:16;;;;;;;62.37;56.80;;;0.30;99.90;;;;;;5050259;28;20088;-71
2024/01/10 01:47:42;;;;;;;54.23;50.17;;;0.30;99.90;;;;;;5051397;28;20029;-71
2024/01/10 01:50:08;;;;;;;71.03;65.00;;;0.30;99.90;;;;;;5049866;28;20041;-71
2024/01/10 01:52:34;;;;;;;56.77;51.43;;;0.20;99.90;;;;;;5051206;28;20056;-71
2024/01/10 01:55:01;;;;;;;100.57;92.93;;;0.30;99.90;;;;;;5050349;28;20119;-71
2024/01/10 01:57:27;;;;;;;54.73;49.70;;;0.30;99.90;;;;;;5049793;28;20040;-71
2024/01/10 01:59:53;;;;;;;70.40;64.47;;;0.40;99.90;;;;;;5049665;28;20498;-72
2024/01/10 02:02:19;;;;;;;51.07;46.17;;;0.40;99.90;;;;;;5052235;28;20041;-71
2024/01/10 02:04:46;;;;;;;50.43;45.73;;;0.40;99.90;;;;;;5053074;28;20368;-71
2024/01/10 02:07:12;;;;;;;93.97;87.43;;;0.30;99.90;;;;;;5053310;28;20052;-71
2024/01/10 02:09:38;;;;;;;79.97;74.57;;;0.20;99.90;;;;;;5054244;28;20045;-71
2024/01/10 02:12:05;;;;;;;70.57;64.30;;;0.10;99.90;;;;;;5053324;28;20025;-71
2024/01/10 02:14:31;;;;;;;54.20;49.93;;;0.10;99.90;;;;;;5053965;28;20044;-71
2024/01/10 02:16:57;;;;;;;59.37;54.73;;;0.20;99.90;;;;;;5051800;28;20064;-71
2024/01/10 02:19:24;;;;;;;66.63;60.57;;;0.20;99.90;;;;;;5053638;28;20025;-71
2024/01/10 02:21:50;;;;;;;66.17;60.40;;;0.20;99.90;;;;;;5040321;28;20044;-71
2024/01/10 02:24:16;;;;;;;48.90;44.13;;;0.20;99.90;;;;;;5043726;28;20044;-71
2024/01/10 02:26:42;;;;;;;61.23;55.77;;;0.20;99.90;;;;;;5041351;28;20045;-89
2024/01/10 02:29:08;;;;;;;59.90;54.17;;;0.20;99.90;;;;;;5040885;28;20032;-88
2024/01/10 02:31:34;;;;;;;90.13;82.67;;;0.20;99.90;;;;;;5053183;28;20048;-88
2024/01/10 02:34:00;;;;;;;59.60;54.07;;;0.20;99.90;;;;;;5054794;28;20029;-88
2024/01/10 02:36:26;;;;;;;73.70;66.90;;;0.30;99.90;;;;;;5054590;28;20395;-89
2024/01/10 02:38:52;;;;;;;70.97;64.60;;;0.30;99.90;;;;;;5054781;28;20025;-88
2024/01/10 02:41:18;;;;;;;46.60;42.10;;;0.30;99.90;;;;;;5044645;28;20412;-89
2024/01/10 02:43:44;;;;;;;63.27;57.33;;;0.20;99.90;;;;;;5053042;28;20049;-88
2024/01/10 02:46:11;;;;;;;38.13;34.67;;;0.20;99.90;;;;;;5053813;28;20041;-87
2024/01/10 02:48:37;;;;;;;52.40;47.33;;;0.20;99.90;;;;;;5053426;28;20029;-88
2024/01/10 02:51:03;;;;;;;72.43;66.30;;;0.10;99.90;;;;;;5046829;28;20395;-88
2024/01/10 02:53:30;;;;;;;61.13;55.53;;;0.20;99.90;;;;;;5048997;28;20381;-89
2024/01/10 02:55:56;;;;;;;41.57;37.77;;;0.20;99.90;;;;;;5049858;28;20037;-88
2024/01/10 02:58:25;;;;;;;87.00;79.80;;;0.20;99.90;;;;;;5053354;28;20475;-89
2024/01/10 03:00:51;;;;;;;56.27;51.17;;;0.20;99.90;;;;;;5046456;28;20037;-89
2024/01/10 03:03:17;;;;;;;50.97;46.03;;;0.20;99.90;;;;;;5040155;28;20028;-88
2024/01/10 03:05:43;;;;;;;64.47;59.30;;;0.20;99.90;;;;;;5043185;28;20072;-88
2024/01/10 03:08:09;;;;;;;63.40;57.47;;;0.20;99.90;;;;;;5047223;28;20036;-88
2024/01/10 03:10:35;;;;;;;65.40;60.00;;;0.10;99.90;;;;;;5035539;28;20506;-90
2024/01/10 03:13:01;;;;;;;39.73;36.53;;;0.10;99.90;;;;;;5052294;28;20029;-89
2024/01/10 03:15:27;;;;;;;60.73;55.33;;;0.10;99.90;;;;;;5048780;28;20025;-89
2024/01/10 03:17:53;;;;;;;42.63;38.73;;;0.10;99.90;;;;;;5050940;28;20040;-88
2024/01/10 03:20:19;;;;;;;78.37;72.13;;;0.10;99.90;;;;;;5035787;28;20017;-85
2024/01/10 03:22:45;;;;;;;48.47;43.60;;;0.10;99.90;;;;;;5051755;28;20384;-88
2024/01/10 03:25:12;;;;;;;69.03;61.63;;;0.10;99.90;;;;;;5051735;28;20024;-88
2024/01/10 03:27:38;;;;;;;57.73;50.20;;;0.10;99.90;;;;;;5052344;28;20040;-88
2024/01/10 03:30:05;;;;;;;60.87;55.67;;;0.20;99.90;;;;;;5051525;28;20472;-71
2024/01/10 03:32:31;;;;;;;76.53;69.80;;;0.20;99.90;;;;;;5031812;28;20041;-71
2024/01/10 03:34:57;;;;;;;63.17;57.23;;;0.10;99.90;;;;;;5049520;28;20472;-71
2024/01/10 03:37:24;;;;;;;55.50;50.20;;;0.10;99.90;;;;;;5051778;28;20033;-71
2024/01/10 03:39:50;;;;;;;84.73;78.53;;;0.20;99.90;;;;;;5051491;28;20033;-71
2024/01/10 03:42:16;;;;;;;53.83;49.13;;;0.20;99.90;;;;;;5052381;28;20052;-71
2024/01/10 03:44:42;;;;;;;109.57;101.63;;;0.10;99.90;;;;;;5051716;28;20056;-71
2024/01/10 03:47:08;;;;;;;52.97;48.03;;;0.10;99.90;;;;;;5049442;28;20033;-71
2024/01/10 03:49:34;;;;;;;88.93;82.07;;;0.10;99.90;;;;;;5034842;28;20040;-71
2024/01/10 03:52:00;;;;;;;108.80;101.03;;;0.10;99.90;;;;;;5052408;28;20037;-71
2024/01/10 03:54:26;;;;;;;50.77;46.67;;;0.10;99.90;;;;;;5051161;28;20514;-71
2024/01/10 03:56:52;;;;;;;106.83;99.43;;;0.10;99.90;;;;;;5052091;28;20043;-71
2024/01/10 03:59:18;;;;;;;56.57;50.87;;;0.10;99.90;;;;;;5052250;28;20036;-71
2024/01/10 04:01:44;;;;;;;60.67;54.47;;;0.00;99.90;;;;;;5051518;28;20037;-71
2024/01/10 04:04:10;;;;;;;46.90;42.23;;;0.10;99.90;;;;;;5052416;28;20025;-71
2024/01/10 04:06:36;;;;;;;110.43;102.73;;;0.10;99.90;;;;;;5051769;28;20045;-71
2024/01/10 04:09:03;;;;;;;60.20;54.50;;;0.00;99.90;;;;;;5051422;28;20029;-71
2024/01/10 04:11:29;;;;;;;50.43;45.13;;;0.00;99.90;;;;;;5051993;28;20475;-71
2024/01/10 04:13:55;;;;;;;63.97;58.87;;;0.10;99.90;;;;;;5052283;28;20037;-71
2024/01/10 04:16:21;;;;;;;62.13;56.40;;;0.00;99.90;;;;;;5051367;28;20037;-71
2024/01/10 04:18:47;;;;;;;44.17;39.50;;;0.10;99.90;;;;;;5051461;28;20029;-71
2024/01/10 04:21:13;;;;;;;77.87;71.30;;;0.10;99.90;;;;;;5051986;28;20036;-72
2024/01/10 04:23:39;;;;;;;70.97;64.83;;;0.10;99.90;;;;;;5051802;28;20033;-71
2024/01/10 04:26:05;;;;;;;80.30;73.97;;;0.20;99.90;;;;;;5051415;28;20044;-71
2024/01/10 04:28:31;;;;;;;72.20;65.70;;;0.30;99.90;;;;;;5050499;28;20068;-71
2024/01/10 04:30:57;;;;;;;61.57;57.57;;;0.30;99.90;;;;;;5050923;28;20045;-71
2024/01/10 04:33:23;;;;;;;48.97;43.97;;;0.30;99.90;;;;;;5052096;28;20033;-71
2024/01/10 04:35:50;;;;;;;74.07;67.43;;;0.20;99.90;;;;;;5051645;28;20029;-71
2024/01/10 04:38:16;;;;;;;69.63;62.90;;;0.20;99.90;;;;;;5051567;28;20040;-71
2024/01/10 04:40:42;;;;;;;76.83;70.20;;;0.20;99.90;;;;;;5051318;28;20048;-71
2024/01/10 04:43:08;;;;;;;103.13;96.00;;;0.20;99.90;;;;;;5051453;28;20057;-71
2024/01/10 04:45:34;;;;;;;43.17;39.40;;;0.20;99.90;;;;;;5050657;28;20037;-71
2024/01/10 04:48:00;;;;;;;95.10;87.83;;;0.10;99.90;;;;;;5051823;28;20044;-71
2024/01/10 04:50:26;;;;;;;62.17;56.90;;;0.00;99.90;;;;;;5049235;28;20579;-71
2024/01/10 04:52:52;;;;;;;73.10;66.60;;;0.10;99.90;;;;;;5045944;28;20029;-71
2024/01/10 04:55:18;;;;;;;70.80;66.17;;;0.00;99.90;;;;;;5050839;28;20037;-71
2024/01/10 04:57:45;;;;;;;90.77;83.40;;;0.10;99.90;;;;;;5051362;28;20053;-88
2024/01/10 05:00:11;;;;;;;75.53;68.80;;;0.10;99.90;;;;;;5051242;28;20036;-87
2024/01/10 05:02:37;;;;;;;68.97;62.77;;;0.10;99.90;;;;;;5052134;28;20037;-87
2024/01/10 05:05:04;;;;;;;65.17;59.20;;;0.00;99.90;;;;;;5050947;28;20052;-88
2024/01/10 05:07:33;;;;;;;78.83;72.07;;;0.10;99.90;;;;;;5051121;28;20573;-88
2024/01/10 05:09:59;;;;;;;84.70;77.33;;;0.10;99.90;;;;;;5051874;28;20044;-88
2024/01/10 05:12:25;;;;;;;70.10;63.97;;;0.10;99.90;;;;;;5032755;28;20050;-87
2024/01/10 05:14:52;;;;;;;87.30;80.20;;;0.10;99.90;;;;;;5030921;28;20049;-86
2024/01/10 05:17:18;;;;;;;83.73;78.87;;;0.10;99.90;;;;;;5042079;28;20036;-87
2024/01/10 05:19:45;;;;;;;103.13;95.57;;;0.10;99.90;;;;;;5051936;28;20033;-88
2024/01/10 05:22:11;;;;;;;67.30;62.43;;;0.10;99.90;;;;;;5044464;28;20403;-86
2024/01/10 05:24:37;;;;;;;63.70;57.97;;;0.00;99.90;;;;;;5050152;28;20033;-88
2024/01/10 05:27:04;;;;;;;108.63;100.47;;;-0.10;99.90;;;;;;5050421;28;20029;-88
2024/01/10 05:29:30;;;;;;;84.67;71.17;;;0.00;99.90;;;;;;5051850;28;20040;-88
2024/01/10 05:31:56;;;;;;;148.10;138.33;;;0.00;99.90;;;;;;5051183;28;20041;-88
2024/01/10 05:34:22;;;;;;;118.47;110.20;;;0.00;99.90;;;;;;5052179;28;20021;-87
2024/01/10 05:36:49;;;;;;;56.43;51.07;;;0.00;99.90;;;;;;5048784;28;20036;-88
2024/01/10 05:39:15;;;;;;;169.77;159.70;;;0.00;99.90;;;;;;5055256;28;20037;-88
2024/01/10 05:41:43;;;;;;;201.50;189.53;;;0.00;99.90;;;;;;5055511;28;20030;-88
2024/01/10 05:44:09;;;;;;;64.57;58.20;;;0.00;99.90;;;;;;5055605;28;20049;-87
2024/01/10 05:46:35;;;;;;;57.20;51.40;;;0.00;99.90;;;;;;5054430;28;20049;-88
2024/01/10 05:49:04;;;;;;;67.67;61.40;;;0.00;99.90;;;;;;5055779;28;20032;-89
2024/01/10 05:51:31;;;;;;;63.83;58.17;;;0.10;99.90;;;;;;5044484;28;20052;-87
2024/01/10 05:53:57;;;;;;;69.37;63.23;;;0.00;99.90;;;;;;5055098;28;20029;-88
2024/01/10 05:56:23;;;;;;;95.60;89.13;;;0.00;99.90;;;;;;5054960;28;20032;-88
2024/01/10 05:58:50;;;;;;;136.03;126.30;;;0.00;99.90;;;;;;5055157;28;20029;-88
2024/01/10 06:01:17;;;;;;;131.60;123.17;;;-0.10;99.90;;;;;;5053951;28;20052;-71
2024/01/10 06:03:43;;;;;;;56.67;49.43;;;-0.10;99.90;;;;;;5036717;28;20033;-71
2024/01/10 06:06:09;;;;;;;163.43;153.37;;;-0.10;99.90;;;;;;5053622;28;20025;-71
2024/01/10 06:08:35;;;;;;;178.10;167.67;;;-0.10;99.90;;;;;;5053707;28;20051;-71
2024/01/10 06:11:08;;;;;;;79.90;73.30;;;-0.10;99.90;;;;;;5054211;28;20041;-71
2024/01/10 06:13:36;;;;;;;57.80;51.93;;;-0.20;99.90;;;;;;5052658;28;20120;-72
2024/01/10 06:16:03;;;;;;;60.80;55.53;;;-0.20;99.90;;;;;;5052955;28;20036;-71
2024/01/10 06:18:30;;;;;;;101.37;94.90;;;-0.20;99.90;;;;;;5051590;28;20687;-71
2024/01/10 06:20:56;;;;;;;54.50;49.10;;;-0.20;99.90;;;;;;5046112;28;20510;-71
2024/01/10 06:23:22;;;;;;;54.50;48.47;;;-0.20;99.90;;;;;;5034629;28;20029;-70
2024/01/10 06:25:48;;;;;;;60.23;55.33;;;-0.10;99.90;;;;;;5033999;28;20037;-71
2024/01/10 06:28:14;;;;;;;181.67;169.60;;;0.00;99.90;;;;;;5034676;28;20028;-71
2024/01/10 06:30:40;;;;;;;114.63;105.80;;;0.00;99.90;;;;;;5033604;28;20488;-71
2024/01/10 06:33:06;;;;;;;179.07;167.00;;;0.00;99.90;;;;;;5040886;28;20036;-71
2024/01/10 06:35:34;;;;;;;141.40;131.07;;;0.00;99.90;;;;;;5048714;28;20034;-71
2024/01/10 06:38:03;;;;;;;58.13;54.33;;;0.10;99.90;;;;;;5051674;28;20491;-71
2024/01/10 06:40:30;;;;;;;59.23;53.90;;;0.00;99.90;;;;;;5050360;28;20609;-71
2024/01/10 06:42:56;;;;;;;54.00;49.17;;;0.00;99.90;;;;;;5033739;28;20046;-71
2024/01/10 06:45:22;;;;;;;210.33;196.60;;;-0.10;99.90;;;;;;5033548;28;20494;-71
2024/01/10 06:47:48;;;;;;;69.23;62.80;;;0.00;99.90;;;;;;5045863;28;20049;-71
2024/01/10 06:50:15;;;;;;;215.27;200.33;;;-0.10;99.90;;;;;;5052411;28;20033;-71
2024/01/10 06:52:41;;;;;;;64.60;59.10;;;0.00;99.90;;;;;;5033465;28;20049;-71
2024/01/10 06:55:08;;;;;;;52.20;48.13;;;0.00;99.90;;;;;;5033556;28;20610;-71
2024/01/10 06:57:34;;;;;;;139.57;128.97;;;-0.10;99.90;;;;;;5033490;28;20045;-71
2024/01/10 07:00:03;;;;;;;208.80;195.57;;;-0.10;99.90;;;;;;5033590;28;20049;-71
2024/01/10 07:02:29;;;;;;;71.33;65.03;;;-0.10;99.90;;;;;;5033461;28;20518;-71
2024/01/10 07:04:55;;;;;;;59.80;53.67;;;0.00;99.90;;;;;;5053901;28;20032;-71
2024/01/10 07:07:21;;;;;;;135.93;126.00;;;0.00;99.90;;;;;;5043159;28;20044;-71
2024/01/10 07:09:47;;;;;;;63.20;56.97;;;0.00;99.90;;;;;;5053658;28;20032;-71
2024/01/10 07:12:13;;;;;;;96.43;90.33;;;0.10;99.90;;;;;;5036131;28;20554;-71
2024/01/10 07:14:40;;;;;;;130.73;120.80;;;0.00;99.90;;;;;;5033071;28;20384;-72
2024/01/10 07:17:06;;;;;;;79.03;72.13;;;0.00;99.90;;;;;;5046916;28;20045;-71
2024/01/10 07:19:32;;;;;;;79.07;71.87;;;0.00;99.90;;;;;;5046990;28;20372;-71
2024/01/10 07:21:59;;;;;;;104.67;95.70;;;0.10;99.90;;;;;;5037826;28;20041;-71
2024/01/10 07:24:25;;;;;;;139.33;129.40;;;0.10;99.90;;;;;;5033365;28;20412;-77
2024/01/10 07:26:51;;;;;;;98.10;89.83;;;0.00;99.90;;;;;;5032222;28;20040;-77
2024/01/10 07:29:17;;;;;;;66.83;59.90;;;0.00;99.90;;;;;;5033516;28;20491;-78
2024/01/10 07:31:43;;;;;;;78.57;71.67;;;0.00;99.90;;;;;;5031984;28;20045;-77
2024/01/10 07:34:09;;;;;;;66.17;59.83;;;0.00;99.90;;;;;;5033515;28;20026;-77
2024/01/10 07:36:42;;;;;;;99.00;90.70;;;0.10;99.90;;;;;;5039167;28;20049;-77
2024/01/10 07:39:08;;;;;;;119.87;110.37;;;0.00;99.90;;;;;;5051309;28;20032;-77
2024/01/10 07:41:34;;;;;;;73.50;66.77;;;0.00;99.90;;;;;;5051930;28;20036;-77
2024/01/10 07:44:00;;;;;;;74.13;66.93;;;0.00;99.90;;;;;;5041380;28;20057;-79
2024/01/10 07:46:27;;;;;;;74.10;66.40;;;0.00;99.90;;;;;;5047959;28;20044;-77
2024/01/10 07:48:53;;;;;;;127.43;117.63;;;0.00;99.90;;;;;;5051358;28;20040;-77
2024/01/10 07:51:19;;;;;;;121.93;114.17;;;0.00;99.90;;;;;;5049403;28;20040;-78
2024/01/10 07:53:45;;;;;;;85.40;77.50;;;-0.10;99.90;;;;;;5052503;28;20387;-78
2024/01/10 07:56:14;;;;;;;61.57;56.63;;;-0.10;99.90;;;;;;5052615;28;20048;-77
2024/01/10 07:58:40;;;;;;;60.60;51.53;;;-0.10;99.90;;;;;;5052402;28;20051;-78
2024/01/10 08:01:06;;;;;;;86.00;78.20;;;-0.10;99.90;;;;;;5049672;28;20062;-77
2024/01/10 08:03:33;;;;;;;102.50;94.20;;;-0.10;99.90;;;;;;5051378;28;20494;-77
2024/01/10 08:05:59;;;;;;;82.10;74.40;;;0.00;99.90;;;;;;5049789;28;20045;-78
2024/01/10 08:08:25;;;;;;;80.70;73.20;;;0.00;99.90;;;;;;5049017;28;20041;-75
2024/01/10 08:10:51;;;;;;;161.70;150.13;;;0.20;99.90;;;;;;5051400;28;20041;-77
2024/01/10 08:13:18;;;;;;;224.17;209.13;;;0.20;99.90;;;;;;5050372;28;20025;-77
2024/01/10 08:15:44;;;;;;;200.97;187.43;;;0.20;99.90;;;;;;5049238;28;20505;-77
2024/01/10 08:18:10;;;;;;;179.20;166.33;;;0.20;99.90;;;;;;5050387;28;20029;-77
2024/01/10 08:20:36;;;;;;;62.13;56.70;;;0.20;99.90;;;;;;5050258;28;20490;-77
2024/01/10 08:23:02;;;;;;;69.80;62.67;;;0.20;99.90;;;;;;5052051;28;20036;-76
2024/01/10 08:25:29;;;;;;;55.93;50.47;;;0.10;99.90;;;;;;5049882;28;20057;-77
2024/01/10 08:27:57;;;;;;;98.20;89.97;;;0.10;99.90;;;;;;5050641;28;20048;-71
2024/01/10 08:30:24;;;;;;;60.90;56.23;;;0.10;99.90;;;;;;5049774;28;20041;-71
2024/01/10 08:32:50;;;;;;;73.83;67.40;;;0.10;99.90;;;;;;5034630;28;20040;-72
2024/01/10 08:35:16;;;;;;;290.63;271.03;;;0.10;99.90;;;;;;5051888;28;20463;-72
2024/01/10 08:37:46;;;;;;;291.53;272.33;;;0.20;99.90;;;;;;5051434;28;20033;-71
2024/01/10 08:40:14;;;;;;;76.20;70.18;;;0.30;99.90;;;;;;5050699;28;20463;-72
2024/01/10 08:42:43;;;;;;;177.40;163.40;;;0.30;99.90;;;;;;5051079;28;20052;-72
2024/01/10 08:45:11;;;;;;;57.27;53.33;;;0.20;99.90;;;;;;5050261;28;20039;-72
2024/01/10 08:47:37;;;;;;;66.23;60.63;;;0.20;99.90;;;;;;5051508;28;20028;-71
2024/01/10 08:50:04;;;;;;;200.73;187.00;;;0.10;99.90;;;;;;5050467;28;20037;-72
2024/01/10 08:52:34;;;;;;;192.83;179.67;;;0.20;99.90;;;;;;5049706;28;20056;-71
2024/01/10 08:55:00;;;;;;;143.97;132.83;;;0.20;99.90;;;;;;5050377;28;20044;-71
2024/01/10 08:57:27;;;;;;;138.77;128.23;;;0.20;99.90;;;;;;5047042;28;20037;-72
2024/01/10 08:59:53;;;;;;;151.03;141.90;;;0.30;99.90;;;;;;5050777;28;20037;-71
2024/01/10 09:02:20;;;;;;;77.20;69.73;;;0.20;99.90;;;;;;5046051;28;20040;-72
2024/01/10 09:04:46;;;;;;;228.83;213.73;;;0.20;99.90;;;;;;5050791;28;20047;-71
2024/01/10 09:07:12;;;;;;;91.83;83.63;;;0.20;99.90;;;;;;5049427;28;20037;-73
2024/01/10 09:09:38;;;;;;;136.40;126.53;;;0.30;99.90;;;;;;5053623;28;20045;-71
2024/01/10 09:12:04;;;;;;;217.27;203.57;;;0.40;99.90;;;;;;5038740;28;20049;-72
2024/01/10 09:14:30;;;;;;;165.50;153.60;;;0.30;99.90;;;;;;5037957;28;20415;-72
2024/01/10 09:16:58;;;;;;;136.50;126.83;;;0.30;99.90;;;;;;5054950;28;20044;-72
2024/01/10 09:19:24;;;;;;;112.10;103.97;;;0.20;99.90;;;;;;5050150;28;20045;-72
2024/01/10 09:21:51;;;;;;;137.90;128.30;;;0.20;99.90;;;;;;5053435;28;20041;-72
2024/01/10 09:24:17;;;;;;;125.20;115.37;;;0.30;99.90;;;;;;5054796;28;20040;-73
2024/01/10 09:26:44;;;;;;;107.50;100.03;;;0.30;99.90;;;;;;5052891;28;20044;-72
2024/01/10 09:29:10;;;;;;;78.53;72.80;;;0.30;99.90;;;;;;5052544;28;20052;-84
2024/01/10 09:31:36;;;;;;;143.13;134.97;;;0.30;99.90;;;;;;5053909;28;20044;-85
2024/01/10 09:34:02;;;;;;;119.87;109.87;;;0.30;99.90;;;;;;5053758;28;20033;-86
2024/01/10 09:36:28;;;;;;;82.73;75.67;;;0.30;99.90;;;;;;5051794;28;20024;-86
2024/01/10 09:38:54;;;;;;;121.60;112.90;;;0.40;99.90;;;;;;5054129;28;20041;-85
2024/01/10 09:41:20;;;;;;;70.97;66.77;;;0.40;99.90;;;;;;5054873;28;20036;-86
2024/01/10 09:43:47;;;;;;;146.57;136.43;;;0.40;99.90;;;;;;5052871;28;20053;-86
2024/01/10 09:46:13;;;;;;;86.17;79.57;;;0.30;99.90;;;;;;5054291;28;20029;-84
2024/01/10 09:48:39;;;;;;;133.03;123.10;;;0.30;99.90;;;;;;5051963;28;20041;-85
2024/01/10 09:51:05;;;;;;;95.17;88.07;;;0.30;99.90;;;;;;5053721;28;20489;-86
2024/01/10 09:53:32;;;;;;;126.97;118.77;;;0.30;99.90;;;;;;5053540;28;20029;-85
2024/01/10 09:55:59;;;;;;;110.50;103.10;;;0.30;99.90;;;;;;5053221;28;20021;-85
2024/01/10 09:58:26;;;;;;;113.60;105.50;;;0.20;99.90;;;;;;5052460;28;20048;-86
2024/01/10 10:00:52;;;;;;;98.77;90.23;;;0.20;99.90;;;;;;5047277;28;20391;-85
2024/01/10 10:03:19;;;;;;;68.73;62.23;;;0.30;99.90;;;;;;5048043;28;20036;-84
2024/01/10 10:05:45;;;;;;;115.93;107.27;;;0.30;99.90;;;;;;5049561;28;20230;-84
2024/01/10 10:08:14;;;;;;;97.03;89.23;;;0.30;99.90;;;;;;5034980;28;20053;-84
2024/01/10 10:10:44;;;;;;;114.50;105.10;;;0.30;99.90;;;;;;5039875;28;20038;-85
2024/01/10 10:13:10;;;;;;;125.47;116.30;;;0.40;99.90;;;;;;5034458;28;20041;-85
2024/01/10 10:15:37;;;;;;;79.83;74.20;;;0.40;99.90;;;;;;5035901;28;20037;-85
2024/01/10 10:18:03;;;;;;;84.57;77.77;;;0.40;99.90;;;;;;5053226;28;20048;-84
2024/01/10 10:20:32;;;;;;;73.10;66.07;;;0.40;99.90;;;;;;5050560;28;20041;-78
2024/01/10 10:23:10;;;;;;;125.93;116.63;;;0.40;99.90;;;;;;5039158;28;20391;-79
2024/01/10 10:25:37;;;;;;;78.80;71.50;;;0.40;99.90;;;;;;5053198;28;20041;-80
2024/01/10 10:28:04;;;;;;;84.23;76.90;;;0.50;99.90;;;;;;5052329;28;20091;-79
2024/01/10 10:30:31;;;;;;;101.57;93.83;;;0.60;99.90;;;;;;5050789;28;20037;-80
2024/01/10 10:32:57;;;;;;;74.70;68.07;;;0.60;99.90;;;;;;5052959;28;20040;-80
2024/01/10 10:35:23;;;;;;;158.37;147.63;;;0.50;99.90;;;;;;5054045;28;20494;-79
2024/01/10 10:37:51;;;;;;;77.57;70.73;;;0.60;99.90;;;;;;5053623;28;20033;-73
2024/01/10 10:40:18;;;;;;;124.13;115.03;;;0.60;99.90;;;;;;5052702;28;20021;-74
2024/01/10 10:42:46;;;;;;;140.43;131.03;;;0.60;99.90;;;;;;5035957;28;20049;-74
2024/01/10 10:45:17;;;;;;;58.93;54.40;;;0.60;99.90;;;;;;5052369;28;20041;-74
2024/01/10 10:47:48;;;;;;;138.25;128.57;;;0.60;99.90;;;;;;5047527;28;20064;-73
2024/01/10 10:50:20;;;;;;;88.40;82.77;;;0.60;99.90;;;;;;5050490;28;20044;-73
2024/01/10 10:52:47;;;;;;;56.03;51.17;;;0.60;99.90;;;;;;5029443;28;20060;-73
2024/01/10 10:55:17;;;;;;;52.80;47.83;;;0.60;99.90;;;;;;5046950;28;20037;-74
2024/01/10 10:57:48;;;;;;;113.35;105.32;;;0.60;99.90;;;;;;5052008;28;20032;-73
2024/01/10 11:00:15;;;;;;;57.35;53.47;;;0.60;99.90;;;;;;5049221;28;20029;-73
2024/01/10 11:02:42;;;;;;;68.80;50.40;;;0.60;99.90;;;;;;5052696;28;20055;-73
2024/01/10 11:05:09;;;;;;;81.53;74.87;;;0.70;99.90;;;;;;5049698;28;20033;-73
2024/01/10 11:07:36;;;;;;;54.87;49.73;;;0.70;99.90;;;;;;5053448;28;20035;-73
2024/01/10 11:10:04;;;;;;;53.97;48.53;;;0.70;99.90;;;;;;5052861;28;20052;-73
2024/01/10 11:13:08;;;;;;;62.47;57.97;;;0.70;99.90;;;;;;5034836;28;20076;-72
2024/01/10 11:15:34;;;;;;;69.33;62.93;;;0.70;99.90;;;;;;5046830;28;20036;-73
2024/01/10 11:18:15;;;;;;;85.70;79.30;;;0.80;99.90;;;;;;5053441;28;20024;-73
2024/01/10 11:21:13;;;;;;;51.53;47.55;;;0.90;99.90;;;;;;5045410;28;20040;-73
2024/01/10 11:23:44;;;;;;;63.03;58.20;;;0.80;99.90;;;;;;5044964;28;20044;-72
2024/01/10 11:26:10;;;;;;;90.18;82.72;;;0.90;99.90;;;;;;5032581;28;20051;-72
2024/01/10 11:28:40;;;;;;;43.33;39.87;;;1.00;99.90;;;;;;5045205;28;20041;-73
2024/01/10 11:31:07;;;;;;;132.33;124.27;;;1.00;99.90;;;;;;5054101;28;20037;-72
2024/01/10 11:33:34;;;;;;;60.60;54.63;;;1.00;99.90;;;;;;5052270;28;20045;-72
2024/01/10 11:36:13;;;;;;;230.07;215.97;;;1.00;99.90;;;;;;5052230;28;20036;-72
2024/01/10 11:38:56;;;;;;;87.23;82.17;;;1.10;99.90;;;;;;5051447;28;20048;-73
2024/01/10 11:41:22;;;;;;;208.07;194.90;;;1.20;99.90;;;;;;5051713;28;20037;-79
2024/01/10 11:44:17;;;;;;;183.50;171.80;;;1.20;99.90;;;;;;5049618;28;20510;-78
2024/01/10 11:46:45;;;;;;;77.93;72.23;;;1.20;99.90;;;;;;5048769;28;20037;-78
2024/01/10 11:49:15;;;;;;;82.00;76.33;;;1.20;99.90;;;;;;5051506;28;20021;-75
2024/01/10 11:51:43;;;;;;;50.00;45.90;;;1.20;99.90;;;;;;5051990;28;20049;-78
2024/01/10 11:54:09;;;;;;;58.97;53.53;;;1.10;99.90;;;;;;5051526;28;20021;-78
2024/01/10 11:56:39;;;;;;;73.90;68.80;;;1.10;99.90;;;;;;5040411;28;20439;-78
2024/01/10 11:59:12;;;;;;;54.60;50.10;;;1.10;99.90;;;;;;5040998;28;20040;-78
2024/01/10 12:01:39;;;;;;;62.37;57.93;;;1.00;99.90;;;;;;5049670;28;20037;-79
2024/01/10 12:04:05;;;;;;;96.67;89.07;;;1.00;99.90;;;;;;5051040;28;20041;-78
2024/01/10 12:06:32;;;;;;;78.80;71.70;;;1.10;99.90;;;;;;5050702;28;20037;-78
2024/01/10 12:08:59;;;;;;;70.87;64.57;;;1.20;99.90;;;;;;5050579;28;20029;-78
2024/01/10 12:11:25;;;;;;;64.33;59.13;;;1.30;99.90;;;;;;5050418;28;20152;-79
2024/01/10 12:13:51;;;;;;;127.10;117.97;;;1.30;99.90;;;;;;5051519;28;20033;-78
2024/01/10 12:16:17;;;;;;;157.93;147.07;;;1.30;99.90;;;;;;5050488;28;20036;-78
2024/01/10 12:18:43;;;;;;;94.50;87.03;;;1.40;99.90;;;;;;5050435;28;20055;-78
2024/01/10 12:21:10;;;;;;;74.60;68.63;;;1.30;99.90;;;;;;5050961;28;20025;-78
2024/01/10 12:23:36;;;;;;;87.20;80.17;;;1.30;99.90;;;;;;5050805;28;20104;-78
2024/01/10 12:26:04;;;;;;;86.40;79.43;;;1.20;99.90;;;;;;5049122;28;20613;-78
2024/01/10 12:28:30;;;;;;;95.80;88.53;;;1.20;99.90;;;;;;5051388;28;20036;-78